createdAt,value
2019-03-15T00:02:16.339Z,9.30
2019-03-15T00:04:49.772Z,9.32
2019-03-15T00:07:23.273Z,9.46
2019-03-15T00:09:56.629Z,9.46
2019-03-15T00:12:29.964Z,9.50
2019-03-15T00:15:04.347Z,9.39
2019-03-15T00:17:37.747Z,9.42
2019-03-15T00:20:11.256Z,9.48
2019-03-15T00:22:44.665Z,9.47
2019-03-15T00:25:18.151Z,9.54
2019-03-15T00:27:51.494Z,9.58
2019-03-15T00:30:24.930Z,9.45
2019-03-15T00:32:58.631Z,9.53
2019-03-15T00:35:32.123Z,9.46
2019-03-15T00:38:05.522Z,9.45
2019-03-15T00:40:38.969Z,9.49
2019-03-15T00:43:12.347Z,9.44
2019-03-15T00:45:45.763Z,9.51
2019-03-15T00:48:19.133Z,9.47
2019-03-15T00:50:52.471Z,9.40
2019-03-15T00:53:26.022Z,9.44
2019-03-15T00:55:59.362Z,9.42
2019-03-15T00:58:32.816Z,9.27
2019-03-15T01:01:06.294Z,9.46
2019-03-15T01:03:39.719Z,9.55
2019-03-15T01:06:13.093Z,9.69
2019-03-15T01:08:46.456Z,9.61
2019-03-15T01:11:19.803Z,9.55
2019-03-15T01:13:53.196Z,9.46
2019-03-15T01:16:26.535Z,9.56
2019-03-15T01:18:59.904Z,9.38
2019-03-15T01:21:33.384Z,9.49
2019-03-15T01:24:06.828Z,9.46
2019-03-15T01:26:40.224Z,9.36
2019-03-15T01:29:13.603Z,9.35
2019-03-15T01:31:46.957Z,9.31
2019-03-15T01:34:20.363Z,9.45
2019-03-15T01:36:53.716Z,9.45
2019-03-15T01:39:27.085Z,9.40
2019-03-15T01:42:00.486Z,9.41
2019-03-15T01:44:33.945Z,9.37
2019-03-15T01:47:07.289Z,9.44
2019-03-15T01:49:40.736Z,9.41
2019-03-15T01:52:14.140Z,9.42
2019-03-15T01:54:47.606Z,9.37
2019-03-15T01:57:21.007Z,9.36
2019-03-15T01:59:54.415Z,9.41
2019-03-15T02:02:27.904Z,9.42
2019-03-15T02:05:01.306Z,9.43
2019-03-15T02:07:34.817Z,9.36
2019-03-15T02:10:09.158Z,9.31
2019-03-15T02:12:42.614Z,9.18
2019-03-15T02:15:16.038Z,9.21
2019-03-15T02:17:49.412Z,9.13
2019-03-15T02:20:22.848Z,9.23
2019-03-15T02:22:56.191Z,9.20
2019-03-15T02:25:29.577Z,9.31
2019-03-15T02:28:02.939Z,9.23
2019-03-15T02:30:36.483Z,9.27
2019-03-15T02:33:09.884Z,9.34
2019-03-15T02:35:43.255Z,9.21
2019-03-15T02:38:16.594Z,9.28
2019-03-15T02:40:49.964Z,9.33
2019-03-15T02:43:23.296Z,9.19
2019-03-15T02:45:56.817Z,9.20
2019-03-15T02:48:30.152Z,9.20
2019-03-15T02:51:06.477Z,9.12
2019-03-15T02:53:39.787Z,9.16
2019-03-15T02:56:13.133Z,9.18
2019-03-15T02:58:46.465Z,9.04
2019-03-15T03:01:19.814Z,9.13
2019-03-15T03:03:53.217Z,9.06
2019-03-15T03:06:28.055Z,9.13
2019-03-15T03:09:01.770Z,9.12
2019-03-15T03:11:35.115Z,9.15
2019-03-15T03:14:08.522Z,9.27
2019-03-15T03:16:41.866Z,9.36
2019-03-15T03:19:15.181Z,9.17
2019-03-15T03:21:48.530Z,9.25
2019-03-15T03:24:22.211Z,9.30
2019-03-15T03:26:55.653Z,9.29
2019-03-15T03:29:29.039Z,9.23
2019-03-15T03:32:02.439Z,9.20
2019-03-15T03:34:35.866Z,9.25
2019-03-15T03:37:09.180Z,9.21
2019-03-15T03:39:42.502Z,9.25
2019-03-15T03:42:16.024Z,9.19
2019-03-15T03:44:49.450Z,9.23
2019-03-15T03:47:22.866Z,9.21
2019-03-15T03:49:56.180Z,9.23
2019-03-15T03:52:29.598Z,9.13
2019-03-15T03:55:03.023Z,9.14
2019-03-15T03:57:36.704Z,9.12
2019-03-15T04:00:14.882Z,9.18
2019-03-15T04:02:48.293Z,8.99
2019-03-15T04:05:21.635Z,9.06
2019-03-15T04:07:55.011Z,9.17
2019-03-15T04:10:28.425Z,9.24
2019-03-15T04:13:01.747Z,9.12
2019-03-15T04:15:35.173Z,9.18
2019-03-15T04:18:08.483Z,9.14
2019-03-15T04:20:42.481Z,9.08
2019-03-15T04:23:15.878Z,8.99
2019-03-15T04:25:49.222Z,8.90
2019-03-15T04:28:22.542Z,8.87
2019-03-15T04:30:55.895Z,9.03
2019-03-15T04:33:29.231Z,9.11
2019-03-15T04:36:02.579Z,9.10
2019-03-15T04:38:35.882Z,9.17
2019-03-15T04:41:09.240Z,9.18
2019-03-15T04:43:42.564Z,9.14
2019-03-15T04:46:15.904Z,9.16
2019-03-15T04:48:49.243Z,9.19
2019-03-15T04:51:22.650Z,9.18
2019-03-15T04:53:55.927Z,9.19
2019-03-15T04:56:29.287Z,9.25
2019-03-15T04:59:02.611Z,9.24
2019-03-15T05:01:36.122Z,9.28
2019-03-15T05:04:09.931Z,9.24
2019-03-15T05:06:43.280Z,9.31
2019-03-15T05:09:16.675Z,9.31
2019-03-15T05:11:50.031Z,9.32
2019-03-15T05:14:23.388Z,9.18
2019-03-15T05:16:56.817Z,9.04
2019-03-15T05:19:30.183Z,9.11
2019-03-15T05:22:03.577Z,9.10
2019-03-15T05:24:36.926Z,9.05
2019-03-15T05:27:10.370Z,9.22
2019-03-15T05:29:43.740Z,9.19
2019-03-15T05:32:17.078Z,9.20
2019-03-15T05:34:50.392Z,9.31
2019-03-15T05:37:23.780Z,9.30
2019-03-15T05:39:57.146Z,9.35
2019-03-15T05:42:30.519Z,9.30
2019-03-15T05:45:04.879Z,9.39
2019-03-15T05:47:38.291Z,9.39
2019-03-15T05:50:12.920Z,9.46
2019-03-15T05:52:46.277Z,9.51
2019-03-15T05:55:19.601Z,9.43
2019-03-15T05:57:52.944Z,9.59
2019-03-15T06:00:26.258Z,9.52
2019-03-15T06:02:59.631Z,9.57
2019-03-15T06:05:32.964Z,9.49
2019-03-15T06:08:06.348Z,9.56
2019-03-15T06:10:39.668Z,9.53
2019-03-15T06:13:13.049Z,9.44
2019-03-15T06:15:46.368Z,9.55
2019-03-15T06:18:19.708Z,9.68
2019-03-15T06:20:53.026Z,9.77
2019-03-15T06:23:26.367Z,9.74
2019-03-15T06:25:59.716Z,9.81
2019-03-15T06:28:33.202Z,9.70
2019-03-15T06:31:06.643Z,9.72
2019-03-15T06:33:39.986Z,9.80
2019-03-15T06:36:13.320Z,9.85
2019-03-15T06:38:46.741Z,9.94
2019-03-15T06:41:20.083Z,9.89
2019-03-15T06:43:53.514Z,9.93
2019-03-15T06:46:26.832Z,9.94
2019-03-15T06:49:00.187Z,10.08
2019-03-15T06:51:33.596Z,10.06
2019-03-15T06:54:11.713Z,10.11
2019-03-15T06:56:42.284Z,10.20
2019-03-15T06:59:15.674Z,10.13
2019-03-15T07:01:49.000Z,10.21
2019-03-15T07:04:23.987Z,10.42
2019-03-15T07:06:57.311Z,10.37
2019-03-15T07:09:31.071Z,10.56
2019-03-15T07:12:09.140Z,10.62
2019-03-15T07:14:39.517Z,10.70
2019-03-15T07:17:12.859Z,10.82
2019-03-15T07:19:46.189Z,10.60
2019-03-15T07:22:20.120Z,10.68
2019-03-15T07:24:53.593Z,10.77
2019-03-15T07:27:26.933Z,10.91
2019-03-15T07:30:00.552Z,10.82
2019-03-15T07:32:33.987Z,10.84
2019-03-15T07:35:07.672Z,11.02
2019-03-15T07:37:41.095Z,11.07
2019-03-15T07:40:14.416Z,10.99
2019-03-15T07:42:47.855Z,11.05
2019-03-15T07:45:21.168Z,11.19
2019-03-15T07:47:54.515Z,11.25
2019-03-15T07:50:27.828Z,11.20
2019-03-15T07:53:01.195Z,11.24
2019-03-15T07:55:34.534Z,11.36
2019-03-15T07:58:07.911Z,11.31
2019-03-15T08:00:41.232Z,11.49
2019-03-15T08:03:14.585Z,11.51
2019-03-15T08:05:47.972Z,11.75
2019-03-15T08:08:21.353Z,11.72
2019-03-15T08:10:55.187Z,11.71
2019-03-15T08:13:28.573Z,11.49
2019-03-15T08:16:01.964Z,11.60
2019-03-15T08:18:35.403Z,11.38
2019-03-15T08:21:08.788Z,11.34
2019-03-15T08:23:42.154Z,11.35
2019-03-15T08:26:15.476Z,11.41
2019-03-15T08:28:48.845Z,11.45
2019-03-15T08:31:23.457Z,11.55
2019-03-15T08:33:56.941Z,11.60
2019-03-15T08:36:30.321Z,11.78
2019-03-15T08:39:04.742Z,11.70
2019-03-15T08:41:38.094Z,11.70
2019-03-15T08:44:11.440Z,11.77
2019-03-15T08:46:44.764Z,11.67
2019-03-15T08:49:18.160Z,11.80
2019-03-15T08:52:03.294Z,11.73
2019-03-15T08:54:26.634Z,11.64
2019-03-15T08:56:59.975Z,11.71
2019-03-15T08:59:33.328Z,11.76
2019-03-15T09:02:06.651Z,11.94
2019-03-15T09:04:40.016Z,11.88
2019-03-15T09:07:13.335Z,11.90
2019-03-15T09:09:46.708Z,12.01
2019-03-15T09:12:20.024Z,11.92
2019-03-15T09:14:53.378Z,12.02
2019-03-15T09:17:26.695Z,12.09
2019-03-15T09:20:00.040Z,12.17
2019-03-15T09:22:33.360Z,12.21
2019-03-15T09:25:19.447Z,12.35
2019-03-15T09:27:46.465Z,12.47
2019-03-15T09:30:24.171Z,12.61
2019-03-15T09:32:54.877Z,12.50
2019-03-15T09:35:28.305Z,12.80
2019-03-15T09:38:01.663Z,12.82
2019-03-15T09:40:35.050Z,12.71
2019-03-15T09:43:08.337Z,12.71
2019-03-15T09:45:41.682Z,12.76
2019-03-15T09:48:15.002Z,12.65
2019-03-15T09:50:51.536Z,12.62
2019-03-15T09:53:23.392Z,12.57
2019-03-15T09:55:57.625Z,12.35
2019-03-15T09:58:30.943Z,12.52
2019-03-15T10:01:04.605Z,12.67
2019-03-15T10:03:38.390Z,12.56
2019-03-15T10:06:15.692Z,12.47
2019-03-15T10:08:46.852Z,12.27
2019-03-15T10:11:20.159Z,12.37
2019-03-15T10:13:53.512Z,12.24
2019-03-15T10:16:26.870Z,11.84
2019-03-15T10:19:00.217Z,11.88
2019-03-15T10:21:33.600Z,11.90
2019-03-15T10:24:06.958Z,11.84
2019-03-15T10:26:40.272Z,11.67
2019-03-15T10:29:15.716Z,11.64
2019-03-15T10:31:48.739Z,11.57
2019-03-15T10:34:22.223Z,11.57
2019-03-15T10:36:55.526Z,11.60
2019-03-15T10:39:28.878Z,11.57
2019-03-15T10:42:02.219Z,11.52
2019-03-15T10:44:35.641Z,11.37
2019-03-15T10:47:08.962Z,11.71
2019-03-15T10:49:42.507Z,11.70
2019-03-15T10:52:15.961Z,11.66
2019-03-15T10:54:49.539Z,11.58
2019-03-15T10:57:22.868Z,11.70
2019-03-15T10:59:56.227Z,11.65
2019-03-15T11:02:29.551Z,11.64
2019-03-15T11:05:02.918Z,11.53
2019-03-15T11:07:36.247Z,11.36
2019-03-15T11:10:11.121Z,11.43
2019-03-15T11:12:44.480Z,11.41
2019-03-15T11:15:17.907Z,11.38
2019-03-15T11:17:51.276Z,11.42
2019-03-15T11:20:24.690Z,11.59
2019-03-15T11:22:58.015Z,11.40
2019-03-15T11:25:31.385Z,11.40
2019-03-15T11:28:04.704Z,11.56
2019-03-15T11:30:38.054Z,11.54
2019-03-15T11:33:11.369Z,11.60
2019-03-15T11:35:44.727Z,11.55
2019-03-15T11:38:18.082Z,11.51
2019-03-15T11:40:51.418Z,11.55
2019-03-15T11:43:24.748Z,11.57
2019-03-15T11:45:58.101Z,11.50
2019-03-15T11:48:31.461Z,11.57
2019-03-15T11:51:04.814Z,11.54
2019-03-15T11:53:38.131Z,11.39
2019-03-15T11:56:11.638Z,11.39
2019-03-15T11:58:44.946Z,11.25
2019-03-15T12:01:18.313Z,11.31
2019-03-15T12:03:53.253Z,11.29
2019-03-15T12:06:27.066Z,11.41
2019-03-15T12:09:00.351Z,11.37
2019-03-15T12:11:33.804Z,11.47
2019-03-15T12:14:07.190Z,11.16
2019-03-15T12:16:40.594Z,11.14
2019-03-15T12:19:13.918Z,11.04
2019-03-15T12:21:47.294Z,11.08
2019-03-15T12:24:20.725Z,11.22
2019-03-15T12:26:54.330Z,11.11
2019-03-15T12:29:27.828Z,11.03
2019-03-15T12:32:01.171Z,11.12
2019-03-15T12:34:34.516Z,11.28
2019-03-15T12:37:07.949Z,11.32
2019-03-15T12:39:41.281Z,11.43
2019-03-15T12:42:14.695Z,11.51
2019-03-15T12:44:48.025Z,11.31
2019-03-15T12:47:21.382Z,11.47
2019-03-15T12:49:54.695Z,11.55
2019-03-15T12:52:28.176Z,11.37
2019-03-15T12:55:03.504Z,11.41
2019-03-15T12:57:37.404Z,11.51
2019-03-15T13:00:14.343Z,11.71
2019-03-15T13:02:48.046Z,11.53
2019-03-15T13:05:21.519Z,11.72
2019-03-15T13:07:54.841Z,11.88
2019-03-15T13:10:28.195Z,11.90
2019-03-15T13:13:01.754Z,11.95
2019-03-15T13:15:35.116Z,11.85
2019-03-15T13:18:08.427Z,11.84
2019-03-15T13:20:42.341Z,12.00
2019-03-15T13:23:15.653Z,12.22
2019-03-15T13:25:49.369Z,12.23
2019-03-15T13:28:22.838Z,12.35
2019-03-15T13:30:56.261Z,12.21
2019-03-15T13:33:29.583Z,12.37
2019-03-15T13:36:02.937Z,12.45
2019-03-15T13:38:36.293Z,12.48
2019-03-15T13:41:09.641Z,12.54
2019-03-15T13:43:42.966Z,12.57
2019-03-15T13:46:16.334Z,12.61
2019-03-15T13:48:49.643Z,12.77
2019-03-15T13:51:23.062Z,12.69
2019-03-15T13:53:56.452Z,12.74
2019-03-15T13:56:29.804Z,12.65
2019-03-15T13:59:03.205Z,12.74
2019-03-15T14:01:36.535Z,12.85
2019-03-15T14:04:10.001Z,13.02
2019-03-15T14:06:43.373Z,13.02
2019-03-15T14:09:16.698Z,13.12
2019-03-15T14:11:50.258Z,13.00
2019-03-15T14:14:23.588Z,13.27
2019-03-15T14:16:56.948Z,13.54
2019-03-15T14:19:30.262Z,13.57
2019-03-15T14:22:05.981Z,13.62
2019-03-15T14:24:38.654Z,13.73
2019-03-15T14:27:12.039Z,13.63
2019-03-15T14:29:45.345Z,13.49
2019-03-15T14:32:18.714Z,13.14
2019-03-15T14:34:52.103Z,12.78
2019-03-15T14:37:25.527Z,12.43
2019-03-15T14:39:58.893Z,12.08
2019-03-15T14:42:32.298Z,11.89
2019-03-15T14:45:08.809Z,11.94
2019-03-15T14:47:42.154Z,11.87
2019-03-15T14:50:15.565Z,12.00
2019-03-15T14:52:49.100Z,12.07
2019-03-15T14:55:22.409Z,11.99
2019-03-15T14:57:55.745Z,11.88
2019-03-15T15:00:29.340Z,12.07
2019-03-15T15:03:02.768Z,11.78
2019-03-15T15:05:36.182Z,11.85
2019-03-15T15:08:09.527Z,11.66
2019-03-15T15:10:42.879Z,11.84
2019-03-15T15:13:16.220Z,11.88
2019-03-15T15:15:49.568Z,11.91
2019-03-15T15:18:22.928Z,11.80
2019-03-15T15:20:56.242Z,12.02
2019-03-15T15:23:29.627Z,12.04
2019-03-15T15:26:02.958Z,12.14
2019-03-15T15:28:36.294Z,12.21
2019-03-15T15:31:09.622Z,11.99
2019-03-15T15:33:43.030Z,11.93
2019-03-15T15:36:16.413Z,11.90
2019-03-15T15:38:49.768Z,12.06
2019-03-15T15:41:23.097Z,12.00
2019-03-15T15:43:56.439Z,11.99
2019-03-15T15:46:29.754Z,12.08
2019-03-15T15:49:03.100Z,12.03
2019-03-15T15:51:36.449Z,12.00
2019-03-15T15:54:09.805Z,11.93
2019-03-15T15:56:43.129Z,11.83
2019-03-15T15:59:16.469Z,11.91
2019-03-15T16:01:49.790Z,11.78
2019-03-15T16:04:23.140Z,11.81
2019-03-15T16:06:56.452Z,11.89
2019-03-15T16:09:29.829Z,11.79
2019-03-15T16:12:03.144Z,11.67
2019-03-15T16:14:36.483Z,11.83
2019-03-15T16:17:09.829Z,11.83
2019-03-15T16:19:43.171Z,11.84
2019-03-15T16:22:16.486Z,11.89
2019-03-15T16:24:49.832Z,11.81
2019-03-15T16:27:23.245Z,11.83
2019-03-15T16:29:56.550Z,11.89
2019-03-15T16:32:29.909Z,11.77
2019-03-15T16:35:03.384Z,11.73
2019-03-15T16:37:36.735Z,11.86
2019-03-15T16:40:11.493Z,11.85
2019-03-15T16:42:44.914Z,11.92
2019-03-15T16:45:29.332Z,11.76
2019-03-15T16:48:02.682Z,11.74
2019-03-15T16:50:36.016Z,11.70
2019-03-15T16:53:09.357Z,11.64
2019-03-15T16:55:42.706Z,11.60
2019-03-15T16:58:16.055Z,11.56
2019-03-15T17:00:49.396Z,11.61
2019-03-15T17:03:22.898Z,11.42
2019-03-15T17:05:56.204Z,11.41
2019-03-15T17:08:29.582Z,11.40
2019-03-15T17:11:02.979Z,11.25
2019-03-15T17:13:36.327Z,11.34
2019-03-15T17:16:09.831Z,11.34
2019-03-15T17:18:43.154Z,11.15
2019-03-15T17:21:16.468Z,10.99
2019-03-15T17:23:49.891Z,10.88
2019-03-15T17:26:23.210Z,10.92
2019-03-15T17:28:58.918Z,10.93
2019-03-15T17:31:31.579Z,10.80
2019-03-15T17:34:05.003Z,10.91
2019-03-15T17:36:38.353Z,10.84
2019-03-15T17:39:11.694Z,10.86
2019-03-15T17:41:45.119Z,10.88
2019-03-15T17:44:18.423Z,10.70
2019-03-15T17:46:51.834Z,10.59
2019-03-15T17:49:25.199Z,10.83
2019-03-15T17:51:58.598Z,10.68
2019-03-15T17:54:31.942Z,10.65
2019-03-15T17:57:05.382Z,10.63
2019-03-15T17:59:38.713Z,10.59
2019-03-15T18:02:12.159Z,10.54
2019-03-15T18:04:45.594Z,10.46
2019-03-15T18:07:18.918Z,10.53
2019-03-15T18:09:52.255Z,10.63
2019-03-15T18:12:25.641Z,10.58
2019-03-15T18:14:58.987Z,10.51
2019-03-15T18:17:32.299Z,10.54
2019-03-15T18:20:08.258Z,10.63
2019-03-15T18:22:41.595Z,10.28
2019-03-15T18:25:15.025Z,10.53
2019-03-15T18:27:48.705Z,10.41
2019-03-15T18:30:22.045Z,10.40
2019-03-15T18:32:55.369Z,10.59
2019-03-15T18:35:34.017Z,10.47
2019-03-15T18:38:03.779Z,10.45
2019-03-15T18:40:38.872Z,10.26
2019-03-15T18:43:12.236Z,10.33
2019-03-15T18:45:45.620Z,10.29
2019-03-15T18:48:19.021Z,10.22
2019-03-15T18:50:52.445Z,10.25
2019-03-15T18:53:25.764Z,10.29
2019-03-15T18:55:59.116Z,10.41
2019-03-15T18:58:32.433Z,10.45
2019-03-15T19:01:05.853Z,10.24
2019-03-15T19:03:39.242Z,10.20
2019-03-15T19:06:12.595Z,10.00
2019-03-15T19:08:45.910Z,10.12
2019-03-15T19:11:19.271Z,10.11
2019-03-15T19:13:52.696Z,10.19
2019-03-15T19:16:26.025Z,10.23
2019-03-15T19:18:59.519Z,10.24
2019-03-15T19:21:32.835Z,10.23
2019-03-15T19:24:06.185Z,10.30
2019-03-15T19:26:39.589Z,10.32
2019-03-15T19:29:12.923Z,10.23
2019-03-15T19:31:46.249Z,10.21
2019-03-15T19:34:19.587Z,10.24
2019-03-15T19:36:52.905Z,10.17
2019-03-15T19:39:26.285Z,10.28
2019-03-15T19:41:59.601Z,10.32
2019-03-15T19:44:32.973Z,10.46
2019-03-15T19:47:06.417Z,10.35
2019-03-15T19:49:39.775Z,10.44
2019-03-15T19:52:13.111Z,10.35
2019-03-15T19:54:59.514Z,10.17
2019-03-15T19:57:21.629Z,10.39
2019-03-15T20:00:06.968Z,10.43
2019-03-15T20:02:30.124Z,10.27
2019-03-15T20:05:04.167Z,10.30
2019-03-15T20:07:38.134Z,10.31
2019-03-15T20:10:16.111Z,10.26
2019-03-15T20:12:48.242Z,10.32
2019-03-15T20:15:21.627Z,10.38
2019-03-15T20:17:54.945Z,10.19
2019-03-15T20:20:28.367Z,10.34
2019-03-15T20:23:01.717Z,10.22
2019-03-15T20:25:35.133Z,10.14
2019-03-15T20:28:08.513Z,10.16
2019-03-15T20:30:51.318Z,10.03
2019-03-15T20:33:16.894Z,10.19
2019-03-15T20:35:52.039Z,10.22
2019-03-15T20:38:25.298Z,10.27
2019-03-15T20:40:58.799Z,10.22
2019-03-15T20:43:32.180Z,10.20
2019-03-15T20:46:05.559Z,10.14
2019-03-15T20:48:38.886Z,10.06
2019-03-15T20:51:12.358Z,10.19
2019-03-15T20:53:45.668Z,10.07
2019-03-15T20:56:19.038Z,10.27
2019-03-15T20:58:52.380Z,10.03
2019-03-15T21:01:25.799Z,9.80
2019-03-15T21:03:59.115Z,9.98
2019-03-15T21:06:32.536Z,10.09
2019-03-15T21:09:07.391Z,9.93
2019-03-15T21:11:40.753Z,10.15
2019-03-15T21:14:14.073Z,10.01
2019-03-15T21:16:47.418Z,10.07
2019-03-15T21:19:20.745Z,9.89
2019-03-15T21:21:56.331Z,10.04
2019-03-15T21:24:29.185Z,10.03
2019-03-15T21:27:02.609Z,9.89
2019-03-15T21:29:35.939Z,9.79
2019-03-15T21:32:09.407Z,9.86
2019-03-15T21:34:42.888Z,9.88
2019-03-15T21:37:16.245Z,9.93
2019-03-15T21:39:49.736Z,9.89
2019-03-15T21:42:23.052Z,9.86
2019-03-15T21:44:56.424Z,9.83
2019-03-15T21:47:29.737Z,9.84
2019-03-15T21:50:03.982Z,9.80
2019-03-15T21:52:37.289Z,9.91
2019-03-15T21:55:10.736Z,9.71
2019-03-15T21:57:44.041Z,9.69
2019-03-15T22:00:18.432Z,9.49
2019-03-15T22:02:51.755Z,9.49
2019-03-15T22:05:25.109Z,9.65
2019-03-15T22:07:58.464Z,9.56
2019-03-15T22:10:31.812Z,9.42
2019-03-15T22:13:05.165Z,9.55
2019-03-15T22:15:38.583Z,9.46
2019-03-15T22:18:11.954Z,9.40
2019-03-15T22:20:45.302Z,9.41
2019-03-15T22:23:18.633Z,9.43
2019-03-15T22:25:52.068Z,9.32
2019-03-15T22:28:25.383Z,9.34
2019-03-15T22:30:58.818Z,9.33
2019-03-15T22:33:32.134Z,9.33
2019-03-15T22:36:05.678Z,9.39
2019-03-15T22:38:38.988Z,9.35
2019-03-15T22:41:12.401Z,9.35
2019-03-15T22:43:45.720Z,9.36
2019-03-15T22:46:19.059Z,9.44
2019-03-15T22:48:52.397Z,9.41
2019-03-15T22:51:25.741Z,9.39
2019-03-15T22:53:59.170Z,9.39
2019-03-15T22:56:32.512Z,9.37
2019-03-15T22:59:05.824Z,9.37
2019-03-15T23:01:39.254Z,9.40
2019-03-15T23:04:12.580Z,9.31
2019-03-15T23:06:45.994Z,9.38
2019-03-15T23:09:19.331Z,9.39
2019-03-15T23:11:52.685Z,9.40
2019-03-15T23:14:25.999Z,9.42
2019-03-15T23:16:59.342Z,9.56
2019-03-15T23:19:32.719Z,9.43
2019-03-15T23:22:06.112Z,9.53
2019-03-15T23:24:39.797Z,9.54
2019-03-15T23:27:13.138Z,9.52
2019-03-15T23:29:46.749Z,9.60
2019-03-15T23:32:20.177Z,9.80
2019-03-15T23:34:54.052Z,9.59
2019-03-15T23:37:27.406Z,9.77
2019-03-15T23:40:00.721Z,9.69
2019-03-15T23:42:34.429Z,9.80
2019-03-15T23:45:09.680Z,9.82
2019-03-15T23:47:43.092Z,9.74
2019-03-15T23:50:16.471Z,9.76
2019-03-15T23:52:50.076Z,9.74
2019-03-15T23:55:23.775Z,9.74
2019-03-15T23:57:57.501Z,9.79
